Date,TemperatureHighF,TemperatureAvgF,TemperatureLowF,DewpointHighF,DewpointAvgF,DewpointLowF,HumidityHigh,HumidityAvg,HumidityLow,PressureMaxIn,PressureMinIn,WindSpeedMaxMPH,WindSpeedAvgMPH,GustSpeedMaxMPH,PrecipitationSumIn
2013-9-1,91,79,72,78,72,69,92,81,60,29.62,29.49,3,0,6,1.75
2013-9-2,89,78,70,78,72,68,94,84,68,29.61,29.51,0,0,0,1.75
2013-9-3,91,80,73,78,73,70,92,80,62,29.66,29.52,3,0,3,0.00
2013-9-4,89,77,69,74,69,64,90,77,60,29.80,29.66,4,0,5,0.00
2013-9-5,92,77,67,71,65,60,91,71,41,29.82,29.73,3,0,4,0.00
2013-9-6,86,73,65,67,62,58,85,69,51,29.90,29.79,5,0,6,0.00
2013-9-7,88,73,61,67,63,58,89,73,49,29.85,29.70,57,0,57,0.00
2013-9-8,92,76,65,67,64,61,88,68,40,29.71,29.62,3,0,3,0.00
2013-9-9,92,77,67,72,67,63,89,73,50,29.87,29.70,4,0,4,0.00
2013-9-10,94,80,69,74,69,66,90,71,46,29.95,29.86,2,0,2,0.00
2013-9-11,93,79,69,73,68,65,88,71,50,29.92,29.79,2,0,4,0.00
2013-9-12,93,79,71,75,70,67,87,74,55,29.79,29.53,4,0,4,0.00
2013-9-13,90,77,70,70,64,54,89,67,46,29.60,29.47,5,0,6,0.00
2013-9-14,82,69,61,56,54,49,77,60,40,29.85,29.60,5,0,7,0.00
2013-9-15,86,69,56,63,58,52,87,70,45,29.95,29.83,0,0,0,0.00
2013-9-16,88,75,68,73,65,58,92,74,49,29.91,29.75,4,0,8,0.33
2013-9-17,81,69,61,60,56,52,79,65,44,30.03,29.90,6,0,8,0.00
2013-9-18,79,63,53,56,52,49,87,69,42,30.02,29.88,3,0,4,0.00
2013-9-19,78,67,56,63,58,53,88,75,56,29.91,29.80,0,0,0,0.00
2013-9-20,69,67,64,65,63,59,90,85,74,29.81,29.69,0,0,0,0.20
2013-9-21,77,70,65,70,67,63,92,89,78,29.69,29.45,0,0,0,0.61
2013-9-22,80,69,62,65,61,57,93,78,54,29.61,29.43,6,0,9,1.34
2013-9-23,76,64,56,58,55,51,88,74,51,29.79,29.61,4,0,5,0.00
2013-9-24,78,64,56,62,57,52,90,78,57,29.82,29.67,2,0,3,0.00
2013-9-25,74,64,55,62,58,52,91,81,61,29.67,29.59,5,0,5,0.00
2013-9-26,77,67,59,61,58,55,89,75,48,29.74,29.59,5,0,5,0.00
2013-9-27,74,64,55,60,56,52,91,78,59,29.90,29.75,4,0,8,0.00
2013-9-28,73,62,52,57,54,49,90,76,56,29.97,29.87,6,0,6,0.00
2013-9-29,76,62,53,58,54,50,90,76,52,29.89,29.75,4,0,5,0.00
2013-9-30,77,63,53,61,55,50,91,77,52,29.82,29.71,4,0,6,0.00